createdAt,value
2022-11-08T00:01:37.630Z,5.36
2022-11-08T00:04:49.603Z,5.49
2022-11-08T00:08:16.107Z,5.49
2022-11-08T00:11:42.845Z,5.50
2022-11-08T00:14:54.743Z,5.49
2022-11-08T00:18:06.660Z,5.47
2022-11-08T00:21:18.739Z,5.42
2022-11-08T00:24:30.902Z,5.35
2022-11-08T00:27:42.794Z,5.28
2022-11-08T00:30:54.636Z,5.23
2022-11-08T00:34:06.600Z,5.20
2022-11-08T00:37:18.870Z,5.16
2022-11-08T00:40:30.586Z,5.13
2022-11-08T00:43:42.490Z,5.15
2022-11-08T00:46:54.686Z,5.18
2022-11-08T00:50:06.594Z,5.21
2022-11-08T00:53:18.764Z,5.16
2022-11-08T00:56:30.872Z,5.13
2022-11-08T00:59:42.659Z,5.11
2022-11-08T01:02:57.180Z,5.08
2022-11-08T01:06:13.138Z,5.07
2022-11-08T01:09:24.934Z,5.06
2022-11-08T01:12:36.867Z,5.01
2022-11-08T01:15:51.757Z,4.97
2022-11-08T01:19:04.737Z,4.94
2022-11-08T01:22:16.477Z,4.93
2022-11-08T01:25:28.205Z,4.90
2022-11-08T01:28:40.922Z,4.86
2022-11-08T01:31:52.621Z,4.86
2022-11-08T01:35:04.409Z,4.81
2022-11-08T01:38:18.547Z,4.81
2022-11-08T01:41:32.196Z,4.73
2022-11-08T01:45:04.896Z,4.69
2022-11-08T01:48:17.485Z,4.70
2022-11-08T01:51:34.519Z,4.70
2022-11-08T01:54:51.900Z,4.67
2022-11-08T01:58:08.742Z,4.65
2022-11-08T02:01:20.781Z,4.58
2022-11-08T02:04:33.149Z,4.56
2022-11-08T02:07:45.108Z,4.59
2022-11-08T02:10:58.806Z,4.59
2022-11-08T02:14:12.170Z,4.62
2022-11-08T02:17:26.406Z,4.63
2022-11-08T02:20:39.069Z,4.54
2022-11-08T02:23:55.341Z,4.51
2022-11-08T02:27:08.378Z,4.52
2022-11-08T02:30:20.178Z,4.51
2022-11-08T02:33:32.747Z,4.53
2022-11-08T02:36:44.492Z,4.50
2022-11-08T02:39:56.606Z,4.50
2022-11-08T02:43:08.309Z,4.42
2022-11-08T02:46:20.208Z,4.38
2022-11-08T02:49:31.932Z,4.30
2022-11-08T02:52:43.761Z,4.30
2022-11-08T02:55:56.054Z,4.24
2022-11-08T02:59:07.863Z,4.25
2022-11-08T03:02:19.854Z,4.29
2022-11-08T03:05:33.348Z,4.18
2022-11-08T03:08:46.472Z,4.11
2022-11-08T03:11:58.710Z,4.20
2022-11-08T03:15:14.179Z,4.25
2022-11-08T03:18:26.007Z,4.18
2022-11-08T03:21:37.815Z,4.13
2022-11-08T03:24:49.752Z,4.06
2022-11-08T03:28:01.552Z,4.09
2022-11-08T03:31:13.595Z,4.10
2022-11-08T03:34:25.399Z,4.10
2022-11-08T03:37:38.302Z,4.13
2022-11-08T03:40:51.131Z,4.11
2022-11-08T03:44:06.050Z,4.09
2022-11-08T03:47:17.867Z,4.09
2022-11-08T03:50:29.699Z,4.13
2022-11-08T03:53:41.601Z,4.11
2022-11-08T03:56:53.445Z,4.11
2022-11-08T04:00:05.332Z,4.09
2022-11-08T04:03:19.105Z,4.07
2022-11-08T04:06:31.119Z,4.09
2022-11-08T04:09:42.841Z,4.07
2022-11-08T04:13:09.194Z,4.04
2022-11-08T04:16:20.963Z,3.99
2022-11-08T04:19:52.786Z,3.94
2022-11-08T04:23:04.519Z,3.87
2022-11-08T04:26:16.507Z,3.85
2022-11-08T04:29:28.343Z,3.80
2022-11-08T04:32:40.046Z,3.76
2022-11-08T04:35:52.538Z,3.76
2022-11-08T04:39:04.250Z,3.70
2022-11-08T04:42:15.979Z,3.72
2022-11-08T04:45:27.918Z,3.73
2022-11-08T04:48:40.483Z,3.65
2022-11-08T04:51:52.199Z,3.61
2022-11-08T04:55:04.017Z,3.74
2022-11-08T04:58:16.093Z,3.72
2022-11-08T05:01:31.331Z,3.73
2022-11-08T05:04:43.169Z,3.70
2022-11-08T05:07:55.165Z,3.66
2022-11-08T05:11:12.965Z,3.66
2022-11-08T05:14:25.075Z,3.65
2022-11-08T05:17:36.780Z,3.63
2022-11-08T05:21:03.001Z,3.64
2022-11-08T05:24:18.661Z,3.60
2022-11-08T05:27:30.556Z,3.59
2022-11-08T05:30:42.321Z,3.62
2022-11-08T05:33:54.691Z,3.62
2022-11-08T05:37:06.439Z,3.66
2022-11-08T05:40:19.590Z,3.65
2022-11-08T05:43:31.849Z,3.63
2022-11-08T05:46:43.680Z,3.61
2022-11-08T05:49:55.411Z,3.60
2022-11-08T05:53:07.827Z,3.58
2022-11-08T05:56:20.577Z,3.58
2022-11-08T05:59:32.468Z,3.61
2022-11-08T06:02:44.455Z,3.57
2022-11-08T06:05:56.410Z,3.56
2022-11-08T06:09:08.708Z,3.56
2022-11-08T06:12:20.460Z,3.60
2022-11-08T06:15:32.435Z,3.68
2022-11-08T06:18:45.674Z,3.73
2022-11-08T06:21:57.576Z,3.80
2022-11-08T06:25:10.408Z,3.88
2022-11-08T06:28:22.213Z,3.95
2022-11-08T06:31:34.025Z,4.01
2022-11-08T06:34:46.016Z,4.08
2022-11-08T06:38:01.216Z,4.13
2022-11-08T06:41:11.822Z,4.17
2022-11-08T06:44:23.609Z,4.24
2022-11-08T06:47:35.409Z,4.32
2022-11-08T06:50:48.281Z,4.39
2022-11-08T06:54:00.158Z,4.47
2022-11-08T06:57:12.148Z,4.57
2022-11-08T07:00:26.077Z,4.60
2022-11-08T07:03:38.116Z,4.67
2022-11-08T07:06:50.059Z,4.75
2022-11-08T07:10:03.966Z,4.79
2022-11-08T07:13:19.643Z,4.94
2022-11-08T07:16:31.835Z,5.02
2022-11-08T07:19:43.777Z,5.16
2022-11-08T07:22:55.676Z,5.27
2022-11-08T07:26:13.086Z,5.36
2022-11-08T07:29:25.066Z,5.58
2022-11-08T07:32:36.803Z,5.74
2022-11-08T07:35:51.221Z,5.82
2022-11-08T07:39:06.565Z,5.94
2022-11-08T07:42:17.246Z,6.13
2022-11-08T07:45:31.559Z,6.26
2022-11-08T07:48:43.298Z,6.61
2022-11-08T07:51:55.084Z,6.96
2022-11-08T07:55:07.053Z,7.48
2022-11-08T07:58:19.312Z,8.20
2022-11-08T08:01:31.216Z,8.91
2022-11-08T08:04:43.211Z,9.57
2022-11-08T08:07:57.374Z,10.32
2022-11-08T08:11:09.764Z,10.88
2022-11-08T08:14:21.656Z,11.47
2022-11-08T08:17:33.568Z,11.90
2022-11-08T11:25:02.556Z,18.38
2022-11-08T14:53:50.894Z,14.29
2022-11-08T14:57:06.410Z,14.17
2022-11-08T15:03:25.417Z,13.86
2022-11-08T15:29:21.524Z,13.21
2022-11-08T15:32:40.075Z,13.07
2022-11-08T15:35:56.380Z,12.95
2022-11-08T15:39:22.204Z,12.81
2022-11-08T15:42:34.429Z,12.71
2022-11-08T15:45:57.844Z,12.57
2022-11-08T15:49:24.238Z,12.44
2022-11-08T15:52:36.164Z,12.26
2022-11-08T15:55:52.937Z,12.05
2022-11-08T15:59:04.812Z,11.96
2022-11-08T16:02:22.086Z,11.79
2022-11-08T16:05:36.058Z,11.64
2022-11-08T16:08:48.458Z,11.54
2022-11-08T16:12:01.067Z,11.47
2022-11-08T16:15:17.690Z,11.50
2022-11-08T16:18:31.831Z,11.31
2022-11-08T16:21:43.704Z,11.13
2022-11-08T16:24:55.649Z,11.08
2022-11-08T16:28:10.594Z,11.04
2022-11-08T16:31:23.441Z,10.95
2022-11-08T16:34:35.438Z,10.93
2022-11-08T16:37:48.331Z,10.86
2022-11-08T16:41:00.890Z,10.83
2022-11-08T16:44:13.825Z,10.83
2022-11-08T16:47:26.535Z,10.82
2022-11-08T16:50:40.419Z,10.74
2022-11-08T16:53:53.444Z,10.58
2022-11-08T16:57:32.952Z,10.52
2022-11-08T17:00:23.683Z,10.47
2022-11-08T17:03:35.598Z,10.47
2022-11-08T17:06:47.515Z,10.51
2022-11-08T17:09:59.552Z,10.40
2022-11-08T17:13:11.754Z,10.32
2022-11-08T17:16:24.167Z,10.13
2022-11-08T17:19:36.098Z,10.09
2022-11-08T17:22:49.294Z,10.15
2022-11-08T17:26:01.175Z,10.19
2022-11-08T17:29:13.145Z,10.32
2022-11-08T17:32:25.088Z,10.34
2022-11-08T17:35:42.477Z,10.20
2022-11-08T17:38:50.922Z,9.85
2022-11-08T17:42:02.822Z,9.67
2022-11-08T17:45:18.253Z,9.55
2022-11-08T17:48:30.387Z,9.52
2022-11-08T17:51:42.394Z,9.51
2022-11-08T17:54:54.562Z,9.40
2022-11-08T17:58:06.846Z,9.39
2022-11-08T18:01:19.341Z,9.31
2022-11-08T18:04:31.325Z,9.31
2022-11-08T18:07:43.217Z,9.24
2022-11-08T18:10:55.666Z,9.23
2022-11-08T18:14:07.977Z,9.22
2022-11-08T18:17:22.134Z,9.21
2022-11-08T18:20:34.836Z,9.22
2022-11-08T18:23:50.718Z,9.22
2022-11-08T18:27:02.961Z,9.12
2022-11-08T18:30:18.078Z,9.10
2022-11-08T18:33:30.026Z,9.10
2022-11-08T18:36:42.313Z,9.13
2022-11-08T18:39:54.179Z,9.13
2022-11-08T18:43:06.121Z,9.06
2022-11-08T18:46:24.062Z,8.99
2022-11-08T18:49:36.083Z,8.96
2022-11-08T18:52:49.227Z,8.94
2022-11-08T18:56:01.277Z,8.83
2022-11-08T18:59:13.481Z,8.79
2022-11-08T19:02:25.488Z,8.68
2022-11-08T19:05:38.170Z,8.65
2022-11-08T19:08:50.397Z,8.58
2022-11-08T19:12:05.916Z,8.50
2022-11-08T19:15:17.534Z,8.46
2022-11-08T19:18:29.818Z,8.46
2022-11-08T19:21:43.721Z,8.39
2022-11-08T19:24:55.707Z,8.38
2022-11-08T19:28:07.655Z,8.33
2022-11-08T19:31:21.196Z,8.29
2022-11-08T19:34:33.648Z,8.25
2022-11-08T19:37:45.642Z,8.24
2022-11-08T19:40:57.785Z,8.20
2022-11-08T19:44:14.664Z,8.06
2022-11-08T19:47:29.540Z,8.00
2022-11-08T19:50:43.502Z,7.95
2022-11-08T19:54:00.763Z,7.93
2022-11-08T19:57:14.475Z,7.87
2022-11-08T20:00:28.496Z,7.87
2022-11-08T20:03:42.390Z,7.82
2022-11-08T20:06:56.259Z,7.68
2022-11-08T20:10:12.251Z,7.66
2022-11-08T20:13:25.869Z,7.67
2022-11-08T20:16:43.041Z,7.66
2022-11-08T20:19:55.500Z,7.59
2022-11-08T20:23:07.612Z,7.48
2022-11-08T20:26:22.693Z,7.37
2022-11-08T20:29:35.590Z,7.39
2022-11-08T20:32:47.423Z,7.40
2022-11-08T20:35:59.301Z,7.35
2022-11-08T20:39:12.107Z,7.34
2022-11-08T20:42:24.147Z,7.33
2022-11-08T20:45:35.907Z,7.27
2022-11-08T20:48:52.005Z,7.25
2022-11-08T20:52:02.571Z,7.16
2022-11-08T20:55:15.702Z,7.18
2022-11-08T20:58:27.587Z,7.13
2022-11-08T21:01:39.835Z,7.11
2022-11-08T21:04:51.803Z,7.05
2022-11-08T21:08:56.510Z,7.00
2022-11-08T21:11:23.140Z,6.97
2022-11-08T21:14:35.254Z,6.94
2022-11-08T21:17:47.307Z,6.88
2022-11-08T21:21:09.427Z,6.81
2022-11-08T21:24:21.594Z,6.75
2022-11-08T21:27:35.631Z,6.69
2022-11-08T21:30:51.402Z,6.59
2022-11-08T21:34:03.517Z,6.58
2022-11-08T21:37:16.376Z,6.54
2022-11-08T21:40:28.430Z,6.52
2022-11-08T21:43:43.278Z,6.47
2022-11-08T21:46:55.403Z,6.45
2022-11-08T21:50:07.457Z,6.36
2022-11-08T21:53:19.854Z,6.31
2022-11-08T21:56:36.089Z,6.27
2022-11-08T21:59:48.096Z,6.22
2022-11-08T22:03:00.384Z,6.24
2022-11-08T22:06:13.034Z,6.14
2022-11-08T22:09:25.439Z,6.16
2022-11-08T22:12:37.789Z,6.08
2022-11-08T22:15:51.549Z,6.05
2022-11-08T22:19:05.200Z,6.02
2022-11-08T22:22:17.921Z,5.94
2022-11-08T22:25:29.970Z,5.85
2022-11-08T22:28:41.976Z,5.79
2022-11-08T22:31:54.948Z,5.72
2022-11-08T22:35:06.880Z,5.72
2022-11-08T22:38:20.067Z,5.66
2022-11-08T22:41:32.830Z,5.59
2022-11-08T22:44:44.937Z,5.54
2022-11-08T22:47:57.022Z,5.50
2022-11-08T22:51:09.433Z,5.53
2022-11-08T22:54:21.542Z,5.46
2022-11-08T22:57:33.903Z,5.53
2022-11-08T23:00:46.481Z,5.50
2022-11-08T23:03:58.567Z,5.46
2022-11-08T23:07:10.650Z,5.49
2022-11-08T23:10:23.091Z,5.56
2022-11-08T23:13:50.158Z,5.59
2022-11-08T23:17:02.153Z,5.45
2022-11-08T23:20:30.887Z,5.43
2022-11-08T23:23:57.635Z,5.38
2022-11-08T23:27:25.522Z,5.22
2022-11-08T23:30:51.896Z,5.27
2022-11-08T23:34:04.357Z,5.22
2022-11-08T23:37:16.289Z,5.18
2022-11-08T23:40:43.157Z,5.14
2022-11-08T23:44:10.087Z,5.09
2022-11-08T23:47:22.096Z,5.12
2022-11-08T23:50:34.250Z,5.10
2022-11-08T23:53:45.921Z,5.12
2022-11-08T23:56:58.733Z,5.19
